sensor_id;sensor_type;location;lat;lon;timestamp;P1;durP1;ratioP1;P2;durP2;ratioP2
7969;SDS011;4030;52.362;9.206;2023-03-01T00:02:20;4.77;;;3.40;;
7969;SDS011;4030;52.362;9.206;2023-03-01T00:04:46;3.73;;;3.10;;
7969;SDS011;4030;52.362;9.206;2023-03-01T00:07:12;4.63;;;3.50;;
7969;SDS011;4030;52.362;9.206;2023-03-01T00:09:38;3.87;;;3.40;;
7969;SDS011;4030;52.362;9.206;2023-03-01T00:12:05;3.97;;;3.50;;
7969;SDS011;4030;52.362;9.206;2023-03-01T00:14:31;4.13;;;3.73;;
7969;SDS011;4030;52.362;9.206;2023-03-01T00:16:57;4.47;;;3.50;;
7969;SDS011;4030;52.362;9.206;2023-03-01T00:19:23;4.20;;;3.80;;
7969;SDS011;4030;52.362;9.206;2023-03-01T00:21:49;4.80;;;4.03;;
7969;SDS011;4030;52.362;9.206;2023-03-01T00:24:15;4.90;;;3.70;;
7969;SDS011;4030;52.362;9.206;2023-03-01T00:26:41;6.00;;;4.00;;
7969;SDS011;4030;52.362;9.206;2023-03-01T00:29:07;4.70;;;3.67;;
7969;SDS011;4030;52.362;9.206;2023-03-01T00:31:33;4.57;;;4.10;;
7969;SDS011;4030;52.362;9.206;2023-03-01T00:34:00;5.03;;;3.53;;
7969;SDS011;4030;52.362;9.206;2023-03-01T00:36:29;4.90;;;4.07;;
7969;SDS011;4030;52.362;9.206;2023-03-01T00:39:01;7.03;;;4.40;;
7969;SDS011;4030;52.362;9.206;2023-03-01T00:41:29;4.23;;;3.80;;
7969;SDS011;4030;52.362;9.206;2023-03-01T00:43:55;5.40;;;4.50;;
7969;SDS011;4030;52.362;9.206;2023-03-01T00:46:22;5.00;;;4.00;;
7969;SDS011;4030;52.362;9.206;2023-03-01T00:48:50;5.00;;;4.13;;
7969;SDS011;4030;52.362;9.206;2023-03-01T00:51:20;5.63;;;4.50;;
7969;SDS011;4030;52.362;9.206;2023-03-01T00:53:50;4.97;;;4.23;;
7969;SDS011;4030;52.362;9.206;2023-03-01T00:56:21;5.27;;;4.27;;
7969;SDS011;4030;52.362;9.206;2023-03-01T00:58:48;5.80;;;4.27;;
7969;SDS011;4030;52.362;9.206;2023-03-01T01:01:18;5.90;;;4.30;;
7969;SDS011;4030;52.362;9.206;2023-03-01T01:03:53;5.57;;;4.40;;
7969;SDS011;4030;52.362;9.206;2023-03-01T01:06:29;4.90;;;4.00;;
7969;SDS011;4030;52.362;9.206;2023-03-01T01:09:02;5.30;;;4.33;;
7969;SDS011;4030;52.362;9.206;2023-03-01T01:11:30;5.00;;;4.30;;
7969;SDS011;4030;52.362;9.206;2023-03-01T01:13:57;5.80;;;4.40;;
7969;SDS011;4030;52.362;9.206;2023-03-01T01:16:23;6.67;;;4.37;;
7969;SDS011;4030;52.362;9.206;2023-03-01T01:18:51;5.07;;;4.17;;
7969;SDS011;4030;52.362;9.206;2023-03-01T01:21:18;4.40;;;4.00;;
7969;SDS011;4030;52.362;9.206;2023-03-01T01:23:48;5.23;;;4.40;;
7969;SDS011;4030;52.362;9.206;2023-03-01T01:26:16;4.67;;;4.00;;
7969;SDS011;4030;52.362;9.206;2023-03-01T01:28:48;5.33;;;3.70;;
7969;SDS011;4030;52.362;9.206;2023-03-01T01:31:14;5.23;;;4.10;;
7969;SDS011;4030;52.362;9.206;2023-03-01T01:33:40;5.33;;;4.13;;
7969;SDS011;4030;52.362;9.206;2023-03-01T01:36:07;6.00;;;4.70;;
7969;SDS011;4030;52.362;9.206;2023-03-01T01:38:34;5.67;;;4.20;;
7969;SDS011;4030;52.362;9.206;2023-03-01T01:41:01;5.70;;;4.20;;
7969;SDS011;4030;52.362;9.206;2023-03-01T01:43:33;5.63;;;4.50;;
7969;SDS011;4030;52.362;9.206;2023-03-01T01:46:21;5.10;;;4.50;;
7969;SDS011;4030;52.362;9.206;2023-03-01T01:48:57;4.93;;;4.17;;
7969;SDS011;4030;52.362;9.206;2023-03-01T01:51:32;5.63;;;4.30;;
7969;SDS011;4030;52.362;9.206;2023-03-01T01:54:19;5.23;;;4.37;;
7969;SDS011;4030;52.362;9.206;2023-03-01T01:57:00;5.17;;;4.30;;
7969;SDS011;4030;52.362;9.206;2023-03-01T01:59:31;4.70;;;4.20;;
7969;SDS011;4030;52.362;9.206;2023-03-01T02:01:59;5.03;;;4.10;;
7969;SDS011;4030;52.362;9.206;2023-03-01T02:04:27;5.30;;;4.50;;
7969;SDS011;4030;52.362;9.206;2023-03-01T02:06:58;4.80;;;4.30;;
7969;SDS011;4030;52.362;9.206;2023-03-01T02:09:37;5.33;;;4.07;;
7969;SDS011;4030;52.362;9.206;2023-03-01T02:12:03;4.80;;;4.23;;
7969;SDS011;4030;52.362;9.206;2023-03-01T02:14:30;5.17;;;4.33;;
7969;SDS011;4030;52.362;9.206;2023-03-01T02:16:56;4.97;;;4.30;;
7969;SDS011;4030;52.362;9.206;2023-03-01T02:19:38;4.80;;;4.40;;
7969;SDS011;4030;52.362;9.206;2023-03-01T02:22:32;4.97;;;4.00;;
7969;SDS011;4030;52.362;9.206;2023-03-01T02:30:25;6.30;;;4.63;;
7969;SDS011;4030;52.362;9.206;2023-03-01T02:32:52;4.87;;;4.10;;
7969;SDS011;4030;52.362;9.206;2023-03-01T02:35:27;5.60;;;4.63;;
7969;SDS011;4030;52.362;9.206;2023-03-01T02:37:58;6.23;;;4.47;;
7969;SDS011;4030;52.362;9.206;2023-03-01T02:40:25;4.90;;;4.40;;
7969;SDS011;4030;52.362;9.206;2023-03-01T02:42:56;4.33;;;3.93;;
7969;SDS011;4030;52.362;9.206;2023-03-01T02:45:24;5.23;;;4.50;;
7969;SDS011;4030;52.362;9.206;2023-03-01T02:47:54;5.13;;;4.17;;
7969;SDS011;4030;52.362;9.206;2023-03-01T02:52:55;5.47;;;4.60;;
7969;SDS011;4030;52.362;9.206;2023-03-01T02:55:29;6.27;;;4.07;;
7969;SDS011;4030;52.362;9.206;2023-03-01T02:57:55;5.03;;;4.37;;
7969;SDS011;4030;52.362;9.206;2023-03-01T03:00:26;5.57;;;4.57;;
7969;SDS011;4030;52.362;9.206;2023-03-01T03:03:05;5.47;;;4.13;;
7969;SDS011;4030;52.362;9.206;2023-03-01T03:05:31;4.87;;;4.33;;
7969;SDS011;4030;52.362;9.206;2023-03-01T03:07:59;5.23;;;4.40;;
7969;SDS011;4030;52.362;9.206;2023-03-01T03:10:27;5.57;;;4.53;;
7969;SDS011;4030;52.362;9.206;2023-03-01T03:12:57;5.40;;;4.60;;
7969;SDS011;4030;52.362;9.206;2023-03-01T03:15:27;5.47;;;4.43;;
7969;SDS011;4030;52.362;9.206;2023-03-01T03:17:54;6.23;;;4.37;;
7969;SDS011;4030;52.362;9.206;2023-03-01T03:20:24;5.00;;;4.50;;
7969;SDS011;4030;52.362;9.206;2023-03-01T03:22:52;4.80;;;4.20;;
7969;SDS011;4030;52.362;9.206;2023-03-01T03:25:20;5.10;;;4.60;;
7969;SDS011;4030;52.362;9.206;2023-03-01T03:27:47;5.60;;;4.97;;
7969;SDS011;4030;52.362;9.206;2023-03-01T03:30:16;6.07;;;4.83;;
7969;SDS011;4030;52.362;9.206;2023-03-01T03:32:44;5.50;;;4.90;;
7969;SDS011;4030;52.362;9.206;2023-03-01T03:35:17;5.17;;;4.43;;
7969;SDS011;4030;52.362;9.206;2023-03-01T03:37:45;6.00;;;4.80;;
7969;SDS011;4030;52.362;9.206;2023-03-01T03:40:28;5.17;;;4.43;;
7969;SDS011;4030;52.362;9.206;2023-03-01T03:42:57;5.00;;;4.50;;
7969;SDS011;4030;52.362;9.206;2023-03-01T03:45:23;5.07;;;4.57;;
7969;SDS011;4030;52.362;9.206;2023-03-01T03:47:48;5.47;;;4.57;;
7969;SDS011;4030;52.362;9.206;2023-03-01T03:50:15;5.17;;;4.67;;
7969;SDS011;4030;52.362;9.206;2023-03-01T03:52:42;6.10;;;4.30;;
7969;SDS011;4030;52.362;9.206;2023-03-01T03:55:08;5.23;;;4.50;;
7969;SDS011;4030;52.362;9.206;2023-03-01T03:57:37;5.37;;;4.87;;
7969;SDS011;4030;52.362;9.206;2023-03-01T04:00:08;6.37;;;4.67;;
7969;SDS011;4030;52.362;9.206;2023-03-01T04:02:38;5.60;;;4.53;;
7969;SDS011;4030;52.362;9.206;2023-03-01T04:05:08;4.80;;;4.27;;
7969;SDS011;4030;52.362;9.206;2023-03-01T04:07:36;5.00;;;4.47;;
7969;SDS011;4030;52.362;9.206;2023-03-01T04:10:04;5.80;;;5.00;;
7969;SDS011;4030;52.362;9.206;2023-03-01T04:12:32;5.83;;;4.80;;
7969;SDS011;4030;52.362;9.206;2023-03-01T04:15:05;6.10;;;4.70;;
7969;SDS011;4030;52.362;9.206;2023-03-01T04:17:44;5.87;;;4.50;;
7969;SDS011;4030;52.362;9.206;2023-03-01T04:20:15;6.17;;;5.17;;
7969;SDS011;4030;52.362;9.206;2023-03-01T04:22:50;5.70;;;5.00;;
7969;SDS011;4030;52.362;9.206;2023-03-01T04:25:36;5.50;;;4.77;;
7969;SDS011;4030;52.362;9.206;2023-03-01T04:28:04;5.10;;;4.60;;
7969;SDS011;4030;52.362;9.206;2023-03-01T04:30:30;5.63;;;4.93;;
7969;SDS011;4030;52.362;9.206;2023-03-01T04:33:00;6.50;;;5.23;;
7969;SDS011;4030;52.362;9.206;2023-03-01T04:35:28;6.23;;;5.20;;
7969;SDS011;4030;52.362;9.206;2023-03-01T04:37:54;6.33;;;4.63;;
7969;SDS011;4030;52.362;9.206;2023-03-01T04:40:20;5.20;;;4.70;;
7969;SDS011;4030;52.362;9.206;2023-03-01T04:42:46;6.73;;;5.07;;
7969;SDS011;4030;52.362;9.206;2023-03-01T04:45:12;5.90;;;5.10;;
7969;SDS011;4030;52.362;9.206;2023-03-01T04:47:38;5.60;;;4.97;;
7969;SDS011;4030;52.362;9.206;2023-03-01T04:50:10;5.63;;;5.10;;
7969;SDS011;4030;52.362;9.206;2023-03-01T04:52:38;6.73;;;5.27;;
7969;SDS011;4030;52.362;9.206;2023-03-01T04:55:05;5.80;;;5.30;;
7969;SDS011;4030;52.362;9.206;2023-03-01T04:57:32;5.67;;;4.83;;
7969;SDS011;4030;52.362;9.206;2023-03-01T04:59:57;5.80;;;5.20;;
7969;SDS011;4030;52.362;9.206;2023-03-01T05:02:24;6.97;;;5.43;;
7969;SDS011;4030;52.362;9.206;2023-03-01T05:04:50;9.60;;;5.57;;
7969;SDS011;4030;52.362;9.206;2023-03-01T05:07:16;7.00;;;5.83;;
7969;SDS011;4030;52.362;9.206;2023-03-01T05:09:45;6.40;;;5.50;;
7969;SDS011;4030;52.362;9.206;2023-03-01T05:12:11;7.33;;;6.07;;
7969;SDS011;4030;52.362;9.206;2023-03-01T05:14:38;6.13;;;5.53;;
7969;SDS011;4030;52.362;9.206;2023-03-01T05:17:04;8.63;;;6.17;;
7969;SDS011;4030;52.362;9.206;2023-03-01T05:19:31;7.07;;;6.07;;
7969;SDS011;4030;52.362;9.206;2023-03-01T05:21:57;6.30;;;5.70;;
7969;SDS011;4030;52.362;9.206;2023-03-01T05:24:26;6.87;;;6.17;;
7969;SDS011;4030;52.362;9.206;2023-03-01T05:26:53;6.80;;;6.10;;
7969;SDS011;4030;52.362;9.206;2023-03-01T05:29:20;7.13;;;6.40;;
7969;SDS011;4030;52.362;9.206;2023-03-01T05:31:50;6.97;;;6.27;;
7969;SDS011;4030;52.362;9.206;2023-03-01T05:34:19;7.20;;;6.50;;
7969;SDS011;4030;52.362;9.206;2023-03-01T05:36:49;6.80;;;6.10;;
7969;SDS011;4030;52.362;9.206;2023-03-01T05:39:17;7.03;;;6.33;;
7969;SDS011;4030;52.362;9.206;2023-03-01T05:41:48;6.73;;;6.03;;
7969;SDS011;4030;52.362;9.206;2023-03-01T05:44:17;7.03;;;6.33;;
7969;SDS011;4030;52.362;9.206;2023-03-01T05:46:43;6.80;;;6.20;;
7969;SDS011;4030;52.362;9.206;2023-03-01T05:49:09;6.77;;;6.10;;
7969;SDS011;4030;52.362;9.206;2023-03-01T05:51:38;6.20;;;5.60;;
7969;SDS011;4030;52.362;9.206;2023-03-01T05:54:04;6.83;;;6.10;;
7969;SDS011;4030;52.362;9.206;2023-03-01T05:56:32;6.23;;;5.63;;
7969;SDS011;4030;52.362;9.206;2023-03-01T05:58:59;6.33;;;5.70;;
7969;SDS011;4030;52.362;9.206;2023-03-01T06:01:26;6.50;;;5.80;;
7969;SDS011;4030;52.362;9.206;2023-03-01T06:03:52;6.87;;;6.17;;
7969;SDS011;4030;52.362;9.206;2023-03-01T06:06:17;6.87;;;5.77;;
7969;SDS011;4030;52.362;9.206;2023-03-01T06:08:43;6.07;;;5.47;;
7969;SDS011;4030;52.362;9.206;2023-03-01T06:11:09;6.50;;;5.67;;
7969;SDS011;4030;52.362;9.206;2023-03-01T06:13:36;6.20;;;5.60;;
7969;SDS011;4030;52.362;9.206;2023-03-01T06:16:04;5.90;;;5.40;;
7969;SDS011;4030;52.362;9.206;2023-03-01T06:18:31;6.37;;;5.53;;
7969;SDS011;4030;52.362;9.206;2023-03-01T06:20:57;6.90;;;5.63;;
7969;SDS011;4030;52.362;9.206;2023-03-01T06:23:23;5.63;;;5.10;;
7969;SDS011;4030;52.362;9.206;2023-03-01T06:25:49;6.40;;;5.40;;
7969;SDS011;4030;52.362;9.206;2023-03-01T06:28:14;5.50;;;5.00;;
7969;SDS011;4030;52.362;9.206;2023-03-01T06:30:40;6.00;;;5.40;;
7969;SDS011;4030;52.362;9.206;2023-03-01T06:33:06;5.37;;;4.80;;
7969;SDS011;4030;52.362;9.206;2023-03-01T06:35:32;5.27;;;4.77;;
7969;SDS011;4030;52.362;9.206;2023-03-01T06:37:59;6.07;;;5.43;;
7969;SDS011;4030;52.362;9.206;2023-03-01T06:40:26;5.53;;;4.93;;
7969;SDS011;4030;52.362;9.206;2023-03-01T06:42:53;5.50;;;4.77;;
7969;SDS011;4030;52.362;9.206;2023-03-01T06:45:19;6.47;;;4.77;;
7969;SDS011;4030;52.362;9.206;2023-03-01T06:47:46;5.80;;;4.90;;
7969;SDS011;4030;52.362;9.206;2023-03-01T06:50:12;5.30;;;4.80;;
7969;SDS011;4030;52.362;9.206;2023-03-01T06:52:39;6.57;;;5.20;;
7969;SDS011;4030;52.362;9.206;2023-03-01T06:55:06;5.50;;;5.00;;
7969;SDS011;4030;52.362;9.206;2023-03-01T06:57:32;5.60;;;5.10;;
7969;SDS011;4030;52.362;9.206;2023-03-01T06:59:58;6.37;;;4.90;;
7969;SDS011;4030;52.362;9.206;2023-03-01T07:02:24;5.53;;;4.70;;
7969;SDS011;4030;52.362;9.206;2023-03-01T07:04:50;7.83;;;5.57;;
7969;SDS011;4030;52.362;9.206;2023-03-01T07:07:17;6.60;;;5.10;;
7969;SDS011;4030;52.362;9.206;2023-03-01T07:09:43;5.17;;;4.67;;
7969;SDS011;4030;52.362;9.206;2023-03-01T07:12:10;6.33;;;5.23;;
7969;SDS011;4030;52.362;9.206;2023-03-01T07:14:36;7.90;;;5.27;;
7969;SDS011;4030;52.362;9.206;2023-03-01T07:17:01;6.10;;;5.40;;
7969;SDS011;4030;52.362;9.206;2023-03-01T07:19:27;5.70;;;5.10;;
7969;SDS011;4030;52.362;9.206;2023-03-01T07:21:53;6.80;;;5.20;;
7969;SDS011;4030;52.362;9.206;2023-03-01T07:24:20;6.10;;;5.00;;
7969;SDS011;4030;52.362;9.206;2023-03-01T07:26:50;6.70;;;5.80;;
7969;SDS011;4030;52.362;9.206;2023-03-01T07:29:16;7.27;;;5.53;;
7969;SDS011;4030;52.362;9.206;2023-03-01T07:31:43;6.57;;;5.57;;
7969;SDS011;4030;52.362;9.206;2023-03-01T07:34:09;7.53;;;6.30;;
7969;SDS011;4030;52.362;9.206;2023-03-01T07:36:35;9.90;;;6.10;;
7969;SDS011;4030;52.362;9.206;2023-03-01T07:39:02;7.63;;;5.97;;
7969;SDS011;4030;52.362;9.206;2023-03-01T07:41:28;7.73;;;6.37;;
7969;SDS011;4030;52.362;9.206;2023-03-01T07:43:54;8.83;;;6.03;;
7969;SDS011;4030;52.362;9.206;2023-03-01T07:46:20;8.20;;;6.10;;
7969;SDS011;4030;52.362;9.206;2023-03-01T07:48:46;6.73;;;6.03;;
7969;SDS011;4030;52.362;9.206;2023-03-01T07:51:12;7.57;;;5.93;;
7969;SDS011;4030;52.362;9.206;2023-03-01T07:53:38;7.87;;;6.03;;
7969;SDS011;4030;52.362;9.206;2023-03-01T07:56:05;7.27;;;6.00;;
7969;SDS011;4030;52.362;9.206;2023-03-01T07:58:34;7.20;;;5.97;;
7969;SDS011;4030;52.362;9.206;2023-03-01T08:01:01;7.30;;;5.90;;
7969;SDS011;4030;52.362;9.206;2023-03-01T08:03:31;7.30;;;5.87;;
7969;SDS011;4030;52.362;9.206;2023-03-01T08:05:59;5.77;;;5.17;;
7969;SDS011;4030;52.362;9.206;2023-03-01T08:08:26;6.47;;;5.70;;
7969;SDS011;4030;52.362;9.206;2023-03-01T08:10:51;8.07;;;5.93;;
7969;SDS011;4030;52.362;9.206;2023-03-01T08:13:17;6.73;;;5.67;;
7969;SDS011;4030;52.362;9.206;2023-03-01T08:15:47;6.77;;;5.70;;
7969;SDS011;4030;52.362;9.206;2023-03-01T08:18:14;6.90;;;5.50;;
7969;SDS011;4030;52.362;9.206;2023-03-01T08:20:41;6.63;;;5.73;;
7969;SDS011;4030;52.362;9.206;2023-03-01T08:23:07;6.40;;;5.63;;
7969;SDS011;4030;52.362;9.206;2023-03-01T08:25:33;7.57;;;5.80;;
7969;SDS011;4030;52.362;9.206;2023-03-01T08:27:59;5.93;;;5.33;;
7969;SDS011;4030;52.362;9.206;2023-03-01T08:30:25;6.53;;;5.90;;
7969;SDS011;4030;52.362;9.206;2023-03-01T08:32:51;6.87;;;5.50;;
7969;SDS011;4030;52.362;9.206;2023-03-01T08:35:17;6.20;;;5.60;;
7969;SDS011;4030;52.362;9.206;2023-03-01T08:37:44;8.10;;;5.57;;
7969;SDS011;4030;52.362;9.206;2023-03-01T08:40:10;6.27;;;5.37;;
7969;SDS011;4030;52.362;9.206;2023-03-01T08:42:38;6.30;;;5.60;;
7969;SDS011;4030;52.362;9.206;2023-03-01T08:45:05;6.63;;;5.93;;
7969;SDS011;4030;52.362;9.206;2023-03-01T08:47:32;5.73;;;5.13;;
7969;SDS011;4030;52.362;9.206;2023-03-01T08:50:01;6.93;;;5.70;;
7969;SDS011;4030;52.362;9.206;2023-03-01T08:52:27;6.63;;;5.87;;
7969;SDS011;4030;52.362;9.206;2023-03-01T08:54:54;6.33;;;5.53;;
7969;SDS011;4030;52.362;9.206;2023-03-01T08:57:21;6.13;;;5.53;;
7969;SDS011;4030;52.362;9.206;2023-03-01T08:59:47;6.23;;;5.60;;
7969;SDS011;4030;52.362;9.206;2023-03-01T09:02:14;6.10;;;5.50;;
7969;SDS011;4030;52.362;9.206;2023-03-01T09:04:41;6.40;;;5.80;;
7969;SDS011;4030;52.362;9.206;2023-03-01T09:07:07;7.77;;;5.63;;
7969;SDS011;4030;52.362;9.206;2023-03-01T09:09:34;7.33;;;5.60;;
7969;SDS011;4030;52.362;9.206;2023-03-01T09:12:00;5.93;;;5.33;;
7969;SDS011;4030;52.362;9.206;2023-03-01T09:14:26;5.90;;;5.30;;
7969;SDS011;4030;52.362;9.206;2023-03-01T09:16:53;6.10;;;5.47;;
7969;SDS011;4030;52.362;9.206;2023-03-01T09:19:18;5.90;;;4.93;;
7969;SDS011;4030;52.362;9.206;2023-03-01T09:21:44;7.00;;;4.90;;
7969;SDS011;4030;52.362;9.206;2023-03-01T09:24:17;5.70;;;4.87;;
7969;SDS011;4030;52.362;9.206;2023-03-01T09:26:45;5.80;;;4.80;;
7969;SDS011;4030;52.362;9.206;2023-03-01T09:29:12;5.20;;;4.60;;
7969;SDS011;4030;52.362;9.206;2023-03-01T09:31:39;6.07;;;4.73;;
7969;SDS011;4030;52.362;9.206;2023-03-01T09:34:06;4.60;;;4.20;;
7969;SDS011;4030;52.362;9.206;2023-03-01T09:36:32;4.67;;;4.20;;
7969;SDS011;4030;52.362;9.206;2023-03-01T09:38:58;4.70;;;4.13;;
7969;SDS011;4030;52.362;9.206;2023-03-01T09:44:38;5.13;;;3.90;;
7969;SDS011;4030;52.362;9.206;2023-03-01T09:47:25;4.13;;;3.53;;
7969;SDS011;4030;52.362;9.206;2023-03-01T09:50:02;4.80;;;3.90;;
7969;SDS011;4030;52.362;9.206;2023-03-01T09:52:40;4.27;;;3.40;;
7969;SDS011;4030;52.362;9.206;2023-03-01T09:55:31;5.07;;;3.87;;
7969;SDS011;4030;52.362;9.206;2023-03-01T10:09:39;4.83;;;3.30;;
7969;SDS011;4030;52.362;9.206;2023-03-01T10:12:09;4.20;;;3.27;;
7969;SDS011;4030;52.362;9.206;2023-03-01T10:20:24;4.25;;;3.00;;
7969;SDS011;4030;52.362;9.206;2023-03-01T10:23:08;4.32;;;2.97;;
7969;SDS011;4030;52.362;9.206;2023-03-01T10:30:45;3.42;;;2.90;;
7969;SDS011;4030;52.362;9.206;2023-03-01T10:33:21;4.43;;;2.92;;
7969;SDS011;4030;52.362;9.206;2023-03-01T10:35:52;3.78;;;3.10;;
7969;SDS011;4030;52.362;9.206;2023-03-01T10:38:18;3.83;;;3.22;;
7969;SDS011;4030;52.362;9.206;2023-03-01T10:40:52;4.10;;;3.25;;
7969;SDS011;4030;52.362;9.206;2023-03-01T10:43:24;4.45;;;3.38;;
7969;SDS011;4030;52.362;9.206;2023-03-01T10:45:51;4.35;;;3.40;;
7969;SDS011;4030;52.362;9.206;2023-03-01T10:48:19;3.88;;;3.35;;
7969;SDS011;4030;52.362;9.206;2023-03-01T10:53:35;4.38;;;3.70;;
7969;SDS011;4030;52.362;9.206;2023-03-01T10:56:22;3.88;;;2.92;;
7969;SDS011;4030;52.362;9.206;2023-03-01T10:58:58;4.68;;;3.38;;
7969;SDS011;4030;52.362;9.206;2023-03-01T11:01:33;3.95;;;3.15;;
7969;SDS011;4030;52.362;9.206;2023-03-01T11:06:35;4.47;;;3.30;;
7969;SDS011;4030;52.362;9.206;2023-03-01T11:09:20;5.43;;;3.35;;
7969;SDS011;4030;52.362;9.206;2023-03-01T11:11:54;3.88;;;3.15;;
7969;SDS011;4030;52.362;9.206;2023-03-01T11:14:26;4.13;;;3.20;;
7969;SDS011;4030;52.362;9.206;2023-03-01T11:17:01;4.55;;;3.30;;
7969;SDS011;4030;52.362;9.206;2023-03-01T11:19:30;4.03;;;3.17;;
7969;SDS011;4030;52.362;9.206;2023-03-01T11:21:58;4.97;;;3.08;;
7969;SDS011;4030;52.362;9.206;2023-03-01T11:24:30;3.30;;;3.00;;
7969;SDS011;4030;52.362;9.206;2023-03-01T11:27:14;4.43;;;3.13;;
7969;SDS011;4030;52.362;9.206;2023-03-01T11:29:54;3.72;;;2.97;;
7969;SDS011;4030;52.362;9.206;2023-03-01T11:32:26;3.03;;;2.72;;
7969;SDS011;4030;52.362;9.206;2023-03-01T11:35:02;4.40;;;2.97;;
7969;SDS011;4030;52.362;9.206;2023-03-01T11:40:22;3.42;;;2.90;;
7969;SDS011;4030;52.362;9.206;2023-03-01T11:46:13;3.60;;;2.97;;
7969;SDS011;4030;52.362;9.206;2023-03-01T11:52:20;3.92;;;3.00;;
7969;SDS011;4030;52.362;9.206;2023-03-01T11:58:21;5.20;;;3.30;;
7969;SDS011;4030;52.362;9.206;2023-03-01T12:04:48;5.47;;;3.67;;
7969;SDS011;4030;52.362;9.206;2023-03-01T12:16:31;3.92;;;2.97;;
7969;SDS011;4030;52.362;9.206;2023-03-01T12:19:56;3.40;;;2.90;;
7969;SDS011;4030;52.362;9.206;2023-03-01T12:31:34;3.67;;;2.38;;
7969;SDS011;4030;52.362;9.206;2023-03-01T12:34:55;3.30;;;2.20;;
7969;SDS011;4030;52.362;9.206;2023-03-01T12:43:25;3.30;;;1.90;;
7969;SDS011;4030;52.362;9.206;2023-03-01T12:46:21;2.40;;;1.83;;
7969;SDS011;4030;52.362;9.206;2023-03-01T12:49:09;2.80;;;2.10;;
7969;SDS011;4030;52.362;9.206;2023-03-01T12:51:42;2.92;;;1.90;;
7969;SDS011;4030;52.362;9.206;2023-03-01T12:54:27;3.28;;;2.10;;
7969;SDS011;4030;52.362;9.206;2023-03-01T12:56:56;3.10;;;2.08;;
7969;SDS011;4030;52.362;9.206;2023-03-01T12:59:34;2.53;;;2.00;;
7969;SDS011;4030;52.362;9.206;2023-03-01T13:15:47;2.78;;;1.77;;
7969;SDS011;4030;52.362;9.206;2023-03-01T13:23:09;2.40;;;1.70;;
7969;SDS011;4030;52.362;9.206;2023-03-01T13:31:01;1.77;;;1.50;;
7969;SDS011;4030;52.362;9.206;2023-03-01T13:35:59;1.92;;;1.58;;
7969;SDS011;4030;52.362;9.206;2023-03-01T13:49:48;2.03;;;1.50;;
7969;SDS011;4030;52.362;9.206;2023-03-01T13:55:10;1.92;;;1.60;;
7969;SDS011;4030;52.362;9.206;2023-03-01T13:57:39;2.00;;;1.48;;
7969;SDS011;4030;52.362;9.206;2023-03-01T14:06:01;2.17;;;1.98;;
7969;SDS011;4030;52.362;9.206;2023-03-01T14:08:33;3.30;;;2.75;;
7969;SDS011;4030;52.362;9.206;2023-03-01T14:11:06;3.38;;;2.80;;
7969;SDS011;4030;52.362;9.206;2023-03-01T14:16:39;2.97;;;2.60;;
7969;SDS011;4030;52.362;9.206;2023-03-01T14:19:39;2.72;;;2.42;;
7969;SDS011;4030;52.362;9.206;2023-03-01T14:22:23;2.97;;;2.47;;
7969;SDS011;4030;52.362;9.206;2023-03-01T14:24:55;2.50;;;2.22;;
7969;SDS011;4030;52.362;9.206;2023-03-01T14:27:27;2.08;;;1.85;;
7969;SDS011;4030;52.362;9.206;2023-03-01T14:30:02;2.67;;;2.35;;
7969;SDS011;4030;52.362;9.206;2023-03-01T14:33:00;2.28;;;2.08;;
7969;SDS011;4030;52.362;9.206;2023-03-01T14:35:34;2.15;;;1.80;;
7969;SDS011;4030;52.362;9.206;2023-03-01T14:38:01;2.58;;;2.00;;
7969;SDS011;4030;52.362;9.206;2023-03-01T14:40:30;3.00;;;2.25;;
7969;SDS011;4030;52.362;9.206;2023-03-01T14:43:00;2.20;;;1.98;;
7969;SDS011;4030;52.362;9.206;2023-03-01T14:45:34;3.05;;;2.20;;
7969;SDS011;4030;52.362;9.206;2023-03-01T14:48:01;2.50;;;1.80;;
7969;SDS011;4030;52.362;9.206;2023-03-01T14:50:30;2.20;;;1.90;;
7969;SDS011;4030;52.362;9.206;2023-03-01T14:52:59;2.47;;;1.88;;
7969;SDS011;4030;52.362;9.206;2023-03-01T14:55:33;2.20;;;1.73;;
7969;SDS011;4030;52.362;9.206;2023-03-01T14:58:04;3.40;;;1.90;;
7969;SDS011;4030;52.362;9.206;2023-03-01T15:00:36;2.65;;;1.80;;
7969;SDS011;4030;52.362;9.206;2023-03-01T15:03:07;2.20;;;1.80;;
7969;SDS011;4030;52.362;9.206;2023-03-01T15:05:39;2.28;;;1.80;;
7969;SDS011;4030;52.362;9.206;2023-03-01T15:08:07;2.05;;;1.85;;
7969;SDS011;4030;52.362;9.206;2023-03-01T15:10:55;2.15;;;1.55;;
7969;SDS011;4030;52.362;9.206;2023-03-01T15:13:38;2.08;;;1.70;;
7969;SDS011;4030;52.362;9.206;2023-03-01T15:16:13;1.90;;;1.70;;
7969;SDS011;4030;52.362;9.206;2023-03-01T15:18:44;2.42;;;1.80;;
7969;SDS011;4030;52.362;9.206;2023-03-01T15:23:48;2.30;;;1.95;;
7969;SDS011;4030;52.362;9.206;2023-03-01T15:26:30;3.10;;;2.00;;
7969;SDS011;4030;52.362;9.206;2023-03-01T15:29:11;2.28;;;2.08;;
7969;SDS011;4030;52.362;9.206;2023-03-01T15:31:43;2.92;;;2.00;;
7969;SDS011;4030;52.362;9.206;2023-03-01T15:34:23;3.05;;;2.25;;
7969;SDS011;4030;52.362;9.206;2023-03-01T15:36:58;3.28;;;2.33;;
7969;SDS011;4030;52.362;9.206;2023-03-01T15:39:37;2.45;;;2.25;;
7969;SDS011;4030;52.362;9.206;2023-03-01T15:45:07;2.47;;;2.28;;
7969;SDS011;4030;52.362;9.206;2023-03-01T15:47:40;4.90;;;4.20;;
7969;SDS011;4030;52.362;9.206;2023-03-01T15:50:23;5.50;;;5.07;;
7969;SDS011;4030;52.362;9.206;2023-03-01T15:53:01;6.00;;;5.50;;
7969;SDS011;4030;52.362;9.206;2023-03-01T15:55:32;5.53;;;5.03;;
7969;SDS011;4030;52.362;9.206;2023-03-01T16:00:26;3.60;;;3.10;;
7969;SDS011;4030;52.362;9.206;2023-03-01T16:02:53;3.10;;;2.80;;
7969;SDS011;4030;52.362;9.206;2023-03-01T16:05:23;4.20;;;2.72;;
7969;SDS011;4030;52.362;9.206;2023-03-01T16:07:57;4.18;;;3.75;;
7969;SDS011;4030;52.362;9.206;2023-03-01T16:10:24;5.55;;;4.53;;
7969;SDS011;4030;52.362;9.206;2023-03-01T16:12:50;3.80;;;3.25;;
7969;SDS011;4030;52.362;9.206;2023-03-01T16:15:18;3.63;;;3.17;;
7969;SDS011;4030;52.362;9.206;2023-03-01T16:17:52;4.47;;;3.17;;
7969;SDS011;4030;52.362;9.206;2023-03-01T16:20:18;4.18;;;3.20;;
7969;SDS011;4030;52.362;9.206;2023-03-01T16:22:44;3.80;;;3.38;;
7969;SDS011;4030;52.362;9.206;2023-03-01T16:25:12;3.63;;;3.33;;
7969;SDS011;4030;52.362;9.206;2023-03-01T16:27:43;3.75;;;3.30;;
7969;SDS011;4030;52.362;9.206;2023-03-01T16:30:11;4.43;;;3.88;;
7969;SDS011;4030;52.362;9.206;2023-03-01T16:32:39;4.90;;;4.40;;
7969;SDS011;4030;52.362;9.206;2023-03-01T16:35:07;4.43;;;4.03;;
7969;SDS011;4030;52.362;9.206;2023-03-01T16:37:35;4.00;;;3.58;;
7969;SDS011;4030;52.362;9.206;2023-03-01T16:40:02;3.47;;;3.17;;
7969;SDS011;4030;52.362;9.206;2023-03-01T16:42:35;3.80;;;2.92;;
7969;SDS011;4030;52.362;9.206;2023-03-01T16:45:02;3.70;;;2.63;;
7969;SDS011;4030;52.362;9.206;2023-03-01T16:47:28;3.50;;;2.80;;
7969;SDS011;4030;52.362;9.206;2023-03-01T16:49:54;3.78;;;2.95;;
7969;SDS011;4030;52.362;9.206;2023-03-01T16:52:21;3.90;;;3.08;;
7969;SDS011;4030;52.362;9.206;2023-03-01T16:54:47;2.70;;;2.50;;
7969;SDS011;4030;52.362;9.206;2023-03-01T16:57:13;3.03;;;2.55;;
7969;SDS011;4030;52.362;9.206;2023-03-01T16:59:39;3.55;;;2.70;;
7969;SDS011;4030;52.362;9.206;2023-03-01T17:02:06;3.05;;;2.42;;
7969;SDS011;4030;52.362;9.206;2023-03-01T17:04:36;4.07;;;2.85;;
7969;SDS011;4030;52.362;9.206;2023-03-01T17:07:02;3.78;;;3.35;;
7969;SDS011;4030;52.362;9.206;2023-03-01T17:09:28;3.97;;;3.20;;
7969;SDS011;4030;52.362;9.206;2023-03-01T17:11:54;4.05;;;3.33;;
7969;SDS011;4030;52.362;9.206;2023-03-01T17:14:19;3.60;;;3.28;;
7969;SDS011;4030;52.362;9.206;2023-03-01T17:16:46;4.10;;;3.28;;
7969;SDS011;4030;52.362;9.206;2023-03-01T17:19:12;4.30;;;3.25;;
7969;SDS011;4030;52.362;9.206;2023-03-01T17:21:42;3.97;;;3.13;;
7969;SDS011;4030;52.362;9.206;2023-03-01T17:24:09;3.70;;;3.20;;
7969;SDS011;4030;52.362;9.206;2023-03-01T17:26:35;4.57;;;4.07;;
7969;SDS011;4030;52.362;9.206;2023-03-01T17:29:01;5.70;;;3.88;;
7969;SDS011;4030;52.362;9.206;2023-03-01T17:31:29;4.20;;;3.80;;
7969;SDS011;4030;52.362;9.206;2023-03-01T17:33:58;4.78;;;4.00;;
7969;SDS011;4030;52.362;9.206;2023-03-01T17:36:24;4.07;;;3.58;;
7969;SDS011;4030;52.362;9.206;2023-03-01T17:38:50;4.20;;;3.80;;
7969;SDS011;4030;52.362;9.206;2023-03-01T17:41:16;5.60;;;4.10;;
7969;SDS011;4030;52.362;9.206;2023-03-01T17:43:46;4.88;;;4.18;;
7969;SDS011;4030;52.362;9.206;2023-03-01T17:46:12;6.20;;;4.50;;
7969;SDS011;4030;52.362;9.206;2023-03-01T17:48:38;7.43;;;6.20;;
7969;SDS011;4030;52.362;9.206;2023-03-01T17:51:04;9.18;;;6.97;;